Time;durP1;ratioP1;P1;durP2;ratioP2;P2;SDS_P1;SDS_P2;PMS_P1;PMS_P2;Temp;Humidity;BMP_temperature;BMP_pressure;BME280_temperature;BME280_humidity;BME280_pressure;Samples;Min_cycle;Max_cycle;Signal;HPM_P1;HPM_P2
2023/01/21 00:00:53;;;;;;;;;;;;;;;;;;8409926;27;27563;-77
2023/01/21 00:04:53;;;;;;;;;;;;;;;;;;8411671;27;27798;-78
2023/01/21 00:08:53;;;;;;;;;;;;;;;;;;8408349;27;28613;-78
2023/01/21 00:12:54;;;;;;;;;;;;;;;;;;8418074;27;29047;-78
2023/01/21 00:16:54;;;;;;;;;;;;;;;;;;8411390;27;27513;-78
2023/01/21 00:20:54;;;;;;;;;;;;;;;;;;8414256;27;27387;-77
2023/01/21 00:24:54;;;;;;;;;;;;;;;;;;8413271;27;27271;-77
2023/01/21 00:28:54;;;;;;;;;;;;;;;;;;8411361;27;29461;-78
2023/01/21 00:32:54;;;;;;;;;;;;;;;;;;8407535;27;27836;-78
2023/01/21 00:36:54;;;;;;;;;;;;;;;;;;8405467;27;27863;-78
2023/01/21 00:40:54;;;;;;;;;;;;;;;;;;8420830;27;27806;-77
2023/01/21 00:44:56;;;;;;;;;;;;;;;;;;8419646;27;29426;-78
2023/01/21 00:48:56;;;;;;;;;;;;;;;;;;8411364;27;27717;-80
2023/01/21 00:52:56;;;;;;;;;;;;;;;;;;8415609;27;27909;-78
2023/01/21 00:56:56;;;;;;;;;;;;;;;;;;8411743;27;28765;-80
2023/01/21 01:00:56;;;;;;;;;;;;;;;;;;8416892;27;28110;-80
2023/01/21 01:04:56;;;;;;;;;;;;;;;;;;8416063;27;28042;-78
2023/01/21 01:08:57;;;;;;;;;;;;;;;;;;8411707;27;27912;-78
2023/01/21 01:12:57;;;;;;;;;;;;;;;;;;8418944;27;27542;-78
2023/01/21 01:16:57;;;;;;;;;;;;;;;;;;8410418;27;27289;-78
2023/01/21 01:20:57;;;;;;;;;;;;;;;;;;8416146;27;29146;-79
2023/01/21 01:24:57;;;;;;;;;;;;;;;;;;8417253;27;29822;-79
2023/01/21 01:28:58;;;;;;;;;;;;;;;;;;8414700;27;28734;-78
2023/01/21 01:32:58;;;;;;;;;;;;;;;;;;8412616;27;28056;-79
2023/01/21 01:36:58;;;;;;;;;;;;;;;;;;8413440;27;28431;-79
2023/01/21 01:40:58;;;;;;;;;;;;;;;;;;8412298;27;27233;-79
2023/01/21 01:44:58;;;;;;;;;;;;;;;;;;8417563;27;27345;-79
2023/01/21 01:48:58;;;;;;;;;;;;;;;;;;8414804;27;27691;-79
2023/01/21 01:52:58;;;;;;;;;;;;;;;;;;8409711;27;28516;-78
2023/01/21 01:56:58;;;;;;;;;;;;;;;;;;8415076;27;29363;-77
2023/01/21 02:00:58;;;;;;;;;;;;;;;;;;8410588;27;28688;-77
2023/01/21 02:04:58;;;;;;;;;;;;;;;;;;8412295;27;29926;-77
2023/01/21 02:08:58;;;;;;;;;;;;;;;;;;8407453;27;28419;-77
2023/01/21 02:12:59;;;;;;;;;;;;;;;;;;8407057;27;28544;-78
2023/01/21 02:16:59;;;;;;;;;;;;;;;;;;8412016;27;28957;-78
2023/01/21 02:21:02;;;;;;;;;;;;;;;;;;8415158;27;27692;-78
2023/01/21 02:25:02;;;;;;;;;;;;;;;;;;8414966;27;28631;-78
2023/01/21 02:29:02;;;;;;;;;;;;;;;;;;8406470;27;27641;-77
2023/01/21 02:33:02;;;;;;;;;;;;;;;;;;8408259;27;28576;-78
2023/01/21 02:37:02;;;;;;;;;;;;;;;;;;8413394;27;28788;-78
2023/01/21 02:41:02;;;;;;;;;;;;;;;;;;8415311;27;27922;-78
2023/01/21 02:45:02;;;;;;;;;;;;;;;;;;8411418;27;27860;-79
2023/01/21 02:49:02;;;;;;;;;;;;;;;;;;8412255;27;28760;-78
2023/01/21 02:53:02;;;;;;;;;;;;;;;;;;8414238;27;27994;-78
2023/01/21 02:57:03;;;;;;;;;;;;;;;;;;8409894;27;27529;-77
2023/01/21 03:01:03;;;;;;;;;;;;;;;;;;8410980;27;27431;-78
2023/01/21 03:05:03;;;;;;;;;;;;;;;;;;8412295;27;27424;-78
2023/01/21 03:09:03;;;;;;;;;;;;;;;;;;8403462;27;27211;-78
2023/01/21 03:13:03;;;;;;;;;;;;;;;;;;8406017;27;27516;-78
2023/01/21 03:17:04;;;;;;;;;;;;;;;;;;8413172;27;28237;-77
2023/01/21 03:21:04;;;;;;;;;;;;;;;;;;8412036;27;28101;-77
2023/01/21 03:25:04;;;;;;;;;;;;;;;;;;8407085;27;27922;-77
2023/01/21 03:29:04;;;;;;;;;;;;;;;;;;8404785;27;29951;-78
2023/01/21 03:33:04;;;;;;;;;;;;;;;;;;8410599;27;28855;-77
2023/01/21 03:37:04;;;;;;;;;;;;;;;;;;8405643;27;28056;-77
2023/01/21 03:41:05;;;;;;;;;;;;;;;;;;8405234;27;27847;-78
2023/01/21 03:45:05;;;;;;;;;;;;;;;;;;8403463;27;28736;-77
2023/01/21 03:49:05;;;;;;;;;;;;;;;;;;8411599;27;28704;-77
2023/01/21 03:53:05;;;;;;;;;;;;;;;;;;8400227;27;27894;-77
2023/01/21 03:57:07;;;;;;;;;;;;;;;;;;8369827;28;48130;-77
2023/01/21 04:01:07;;;;;;;;;;;;;;;;;;8369369;28;27943;-78
2023/01/21 04:05:07;;;;;;;;;;;;;;;;;;8370184;28;28135;-79
2023/01/21 04:09:07;;;;;;;;;;;;;;;;;;8376322;28;28837;-79
2023/01/21 04:13:07;;;;;;;;;;;;;;;;;;8375263;28;29009;-78
2023/01/21 04:17:07;;;;;;;;;;;;;;;;;;8367681;28;28624;-78
2023/01/21 04:21:08;;;;;;;;;;;;;;;;;;8368051;28;27168;-78
2023/01/21 04:25:08;;;;;;;;;;;;;;;;;;8368304;27;27815;-78
2023/01/21 04:29:08;;;;;;;;;;;;;;;;;;8374242;28;28483;-78
2023/01/21 04:33:08;;;;;;;;;;;;;;;;;;8369201;28;27507;-79
2023/01/21 04:37:08;;;;;;;;;;;;;;;;;;8370766;28;28982;-78
2023/01/21 04:41:08;;;;;;;;;;;;;;;;;;8376539;28;28563;-78
2023/01/21 04:45:08;;;;;;;;;;;;;;;;;;8369126;28;27363;-78
2023/01/21 04:49:08;;;;;;;;;;;;;;;;;;8366519;28;29196;-78
2023/01/21 04:53:08;;;;;;;;;;;;;;;;;;8368556;28;28081;-77
2023/01/21 04:57:09;;;;;;;;;;;;;;;;;;8377873;28;27578;-78
2023/01/21 05:01:09;;;;;;;;;;;;;;;;;;8375552;28;27754;-77
2023/01/21 05:05:09;;;;;;;;;;;;;;;;;;8378259;28;28538;-79
2023/01/21 05:09:10;;;;;;;;;;;;;;;;;;8374300;28;28187;-78
2023/01/21 05:13:10;;;;;;;;;;;;;;;;;;8376845;28;28664;-78
2023/01/21 05:17:10;;;;;;;;;;;;;;;;;;8378977;28;27677;-79
2023/01/21 05:21:10;;;;;;;;;;;;;;;;;;8377858;28;27910;-78
2023/01/21 05:25:10;;;;;;;;;;;;;;;;;;8381705;28;28683;-78
2023/01/21 05:29:10;;;;;;;;;;;;;;;;;;8370287;28;27592;-78
2023/01/21 05:33:10;;;;;;;;;;;;;;;;;;8372873;28;28744;-78
2023/01/21 05:37:10;;;;;;;;;;;;;;;;;;8378705;28;27739;-77
2023/01/21 05:41:10;;;;;;;;;;;;;;;;;;8376754;28;27609;-78
2023/01/21 05:45:10;;;;;;;;;;;;;;;;;;8377957;28;27924;-76
2023/01/21 05:49:10;;;;;;;;;;;;;;;;;;8375971;28;28478;-77
2023/01/21 05:53:11;;;;;;;;;;;;;;;;;;8375386;28;28719;-78
2023/01/21 05:57:11;;;;;;;;;;;;;;;;;;8379511;28;28457;-77
2023/01/21 06:01:11;;;;;;;;;;;;;;;;;;8386242;28;28460;-77
2023/01/21 06:05:11;;;;;;;;;;;;;;;;;;8380876;28;28531;-77
2023/01/21 06:09:11;;;;;;;;;;;;;;;;;;8377210;28;27445;-77
2023/01/21 06:13:11;;;;;;;;;;;;;;;;;;8385329;28;29861;-78
2023/01/21 06:17:11;;;;;;;;;;;;;;;;;;8376258;28;28473;-77
2023/01/21 06:21:11;;;;;;;;;;;;;;;;;;8387364;28;27410;-77
2023/01/21 06:25:11;;;;;;;;;;;;;;;;;;8375485;28;29494;-78
2023/01/21 06:29:11;;;;;;;;;;;;;;;;;;8369369;28;28487;-78
2023/01/21 06:33:11;;;;;;;;;;;;;;;;;;8375473;28;28178;-78
2023/01/21 06:37:12;;;;;;;;;;;;;;;;;;8374173;28;28650;-78
2023/01/21 06:41:12;;;;;;;;;;;;;;;;;;8379800;28;28447;-77
2023/01/21 06:45:12;;;;;;;;;;;;;;;;;;8372521;28;29704;-79
2023/01/21 06:49:12;;;;;;;;;;;;;;;;;;8376812;28;27571;-80
2023/01/21 06:53:12;;;;;;;;;;;;;;;;;;8379363;28;29932;-79
2023/01/21 06:57:12;;;;;;;;;;;;;;;;;;8374225;28;28948;-78
2023/01/21 07:01:12;;;;;;;;;;;;;;;;;;8375813;28;28686;-78
2023/01/21 07:05:13;;;;;;;;;;;;;;;;;;8372179;28;28897;-77
2023/01/21 07:09:13;;;;;;;;;;;;;;;;;;8375851;28;28523;-77
2023/01/21 07:13:13;;;;;;;;;;;;;;;;;;8374381;28;28687;-78
2023/01/21 07:17:15;;;;;;;;;;;;;;;;;;8374058;28;28885;-78
2023/01/21 07:21:15;;;;;;;;;;;;;;;;;;8379772;28;28805;-77
2023/01/21 07:25:15;;;;;;;;;;;;;;;;;;8379235;28;28463;-76
2023/01/21 07:29:15;;;;;;;;;;;;;;;;;;8380346;28;27099;-76
2023/01/21 07:33:15;;;;;;;;;;;;;;;;;;8381457;28;27339;-78
2023/01/21 07:37:15;;;;;;;;;;;;;;;;;;8379300;28;28682;-79
2023/01/21 07:41:15;;;;;;;;;;;;;;;;;;8380921;27;28034;-77
2023/01/21 07:45:15;;;;;;;;;;;;;;;;;;8386538;28;29017;-78
2023/01/21 07:49:18;;;;;;;;;;;;;;;;;;8372025;28;27386;-76
2023/01/21 07:53:18;;;;;;;;;;;;;;;;;;8380610;28;27758;-77
2023/01/21 07:57:18;;;;;;;;;;;;;;;;;;8375561;28;27567;-78
2023/01/21 08:01:19;;;;;;;;;;;;;;;;;;8372846;28;27894;-77
2023/01/21 08:05:19;;;;;;;;;;;;;;;;;;8373738;28;28498;-78
2023/01/21 08:09:19;;;;;;;;;;;;;;;;;;8376570;28;27759;-78
2023/01/21 08:13:19;;;;;;;;;;;;;;;;;;8380785;28;27931;-77
2023/01/21 08:17:19;;;;;;;;;;;;;;;;;;8378596;28;28579;-77
2023/01/21 08:21:19;;;;;;;;;;;;;;;;;;8368137;28;28956;-78
2023/01/21 08:25:19;;;;;;;;;;;;;;;;;;8378049;28;28650;-78
2023/01/21 08:29:20;;;;;;;;;;;;;;;;;;8375957;28;28973;-78
2023/01/21 08:33:20;;;;;;;;;;;;;;;;;;8379509;28;27400;-79
2023/01/21 08:37:20;;;;;;;;;;;;;;;;;;8385360;28;28460;-77
2023/01/21 08:41:20;;;;;;;;;;;;;;;;;;8375583;28;28502;-78
2023/01/21 08:45:20;;;;;;;;;;;;;;;;;;8379065;28;29143;-77
2023/01/21 08:49:21;;;;;;;;;;;;;;;;;;8382192;28;27376;-78
2023/01/21 08:53:21;;;;;;;;;;;;;;;;;;8378055;28;29052;-77
2023/01/21 08:57:21;;;;;;;;;;;;;;;;;;8379756;28;28461;-78
2023/01/21 09:01:22;;;;;;;;;;;;;;;;;;8381541;28;27378;-78
2023/01/21 09:05:22;;;;;;;;;;;;;;;;;;8378024;28;29084;-78
2023/01/21 09:09:22;;;;;;;;;;;;;;;;;;8374336;28;27073;-79
2023/01/21 09:13:22;;;;;;;;;;;;;;;;;;8380417;28;27562;-79
2023/01/21 09:17:22;;;;;;;;;;;;;;;;;;8383519;28;27347;-78
2023/01/21 09:21:22;;;;;;;;;;;;;;;;;;8379315;28;28222;-77
2023/01/21 09:25:23;;;;;;;;;;;;;;;;;;8376320;28;27300;-77
2023/01/21 09:29:23;;;;;;;;;;;;;;;;;;8378911;28;27966;-77
2023/01/21 09:33:23;;;;;;;;;;;;;;;;;;8378097;28;28744;-78
2023/01/21 09:37:23;;;;;;;;;;;;;;;;;;8376191;28;27949;-79
2023/01/21 09:41:23;;;;;;;;;;;;;;;;;;8380268;28;27502;-77
2023/01/21 09:45:23;;;;;;;;;;;;;;;;;;8380627;28;28280;-77
2023/01/21 09:49:23;;;;;;;;;;;;;;;;;;8387263;28;28817;-77
2023/01/21 09:53:23;;;;;;;;;;;;;;;;;;8377529;28;28500;-78
2023/01/21 09:57:23;;;;;;;;;;;;;;;;;;8376385;28;28178;-77
2023/01/21 10:01:23;;;;;;;;;;;;;;;;;;8375861;28;28234;-77
2023/01/21 10:05:23;;;;;;;;;;;;;;;;;;8381017;28;27828;-78
2023/01/21 10:09:23;;;;;;;;;;;;;;;;;;8382039;28;28802;-79
2023/01/21 10:13:24;;;;;;;;;;;;;;;;;;8375041;28;27966;-78
2023/01/21 10:17:24;;;;;;;;;;;;;;;;;;8375212;28;28109;-79
2023/01/21 10:21:24;;;;;;;;;;;;;;;;;;8372536;28;27869;-78
2023/01/21 10:25:24;;;;;;;;;;;;;;;;;;8373774;28;28486;-80
2023/01/21 10:29:24;;;;;;;;;;;;;;;;;;8370388;28;28584;-79
2023/01/21 10:33:24;;;;;;;;;;;;;;;;;;8362156;28;28939;-78
2023/01/21 10:37:24;;;;;;;;;;;;;;;;;;8362941;28;28429;-78
2023/01/21 10:41:24;;;;;;;;;;;;;;;;;;8366764;28;28731;-79
2023/01/21 10:45:24;;;;;;;;;;;;;;;;;;8364534;28;27868;-77
2023/01/21 10:49:24;;;;;;;;;;;;;;;;;;8372408;28;27256;-78
2023/01/21 10:53:24;;;;;;;;;;;;;;;;;;8370689;28;27468;-78
2023/01/21 10:57:24;;;;;;;;;;;;;;;;;;8373101;28;28775;-78
2023/01/21 11:01:25;;;;;;;;;;;;;;;;;;8376532;27;27359;-78
2023/01/21 11:05:25;;;;;;;;;;;;;;;;;;8374426;28;28531;-77
2023/01/21 11:09:25;;;;;;;;;;;;;;;;;;8363184;28;28721;-77
2023/01/21 11:13:25;;;;;;;;;;;;;;;;;;8360814;28;28684;-77
2023/01/21 11:17:25;;;;;;;;;;;;;;;;;;8382587;28;28876;-77
2023/01/21 11:21:25;;;;;;;;;;;;;;;;;;8367479;28;27653;-78
2023/01/21 11:25:25;;;;;;;;;;;;;;;;;;8367500;28;28567;-78
2023/01/21 11:29:26;;;;;;;;;;;;;;;;;;8368613;28;28187;-77
2023/01/21 11:33:26;;;;;;;;;;;;;;;;;;8376088;28;28224;-78
2023/01/21 11:37:26;;;;;;;;;;;;;;;;;;8372403;28;28627;-80
2023/01/21 11:41:26;;;;;;;;;;;;;;;;;;8366078;28;29839;-78
2023/01/21 11:45:26;;;;;;;;;;;;;;;;;;8370123;28;27390;-78
2023/01/21 11:49:26;;;;;;;;;;;;;;;;;;8374677;28;27311;-78
2023/01/21 11:53:26;;;;;;;;;;;;;;;;;;8364991;28;28573;-78
2023/01/21 11:57:26;;;;;;;;;;;;;;;;;;8368636;28;28892;-78
2023/01/21 12:01:26;;;;;;;;;;;;;;;;;;8366639;28;27470;-79
2023/01/21 12:05:27;;;;;;;;;;;;;;;;;;8363189;28;28641;-78
2023/01/21 12:09:27;;;;;;;;;;;;;;;;;;8365531;28;28021;-79
2023/01/21 12:13:27;;;;;;;;;;;;;;;;;;8370735;27;28739;-78
2023/01/21 12:17:27;;;;;;;;;;;;;;;;;;8375192;28;29103;-78
2023/01/21 12:21:27;;;;;;;;;;;;;;;;;;8366529;28;28059;-77
2023/01/21 12:25:27;;;;;;;;;;;;;;;;;;8362088;28;27289;-77
2023/01/21 12:29:27;;;;;;;;;;;;;;;;;;8371478;28;28671;-78
2023/01/21 12:33:27;;;;;;;;;;;;;;;;;;8373409;28;27686;-80
2023/01/21 12:37:28;;;;;;;;;;;;;;;;;;8373768;28;28180;-79
2023/01/21 12:41:29;;;;;;;;;;;;;;;;;;8371596;28;27680;-78
2023/01/21 12:45:29;;;;;;;;;;;;;;;;;;8377674;28;28740;-78
2023/01/21 12:49:29;;;;;;;;;;;;;;;;;;8369747;28;27502;-78
2023/01/21 12:53:29;;;;;;;;;;;;;;;;;;8372472;28;28450;-77
2023/01/21 12:57:29;;;;;;;;;;;;;;;;;;8376886;28;28031;-78
2023/01/21 13:01:30;;;;;;;;;;;;;;;;;;8371121;28;28278;-78
2023/01/21 13:05:30;;;;;;;;;;;;;;;;;;8367581;28;28187;-77
2023/01/21 13:09:30;;;;;;;;;;;;;;;;;;8370730;28;27410;-77
2023/01/21 13:13:30;;;;;;;;;;;;;;;;;;8371166;28;28706;-77
2023/01/21 13:17:30;;;;;;;;;;;;;;;;;;8383805;28;28412;-78
2023/01/21 13:21:30;;;;;;;;;;;;;;;;;;8380168;28;29868;-78
2023/01/21 13:25:30;;;;;;;;;;;;;;;;;;8383089;28;28108;-79
2023/01/21 13:29:30;;;;;;;;;;;;;;;;;;8374941;28;28836;-79
2023/01/21 13:33:31;;;;;;;;;;;;;;;;;;8374930;28;27841;-79
2023/01/21 13:37:31;;;;;;;;;;;;;;;;;;8371591;28;27655;-79
2023/01/21 13:41:31;;;;;;;;;;;;;;;;;;8372336;28;28763;-79
2023/01/21 13:45:31;;;;;;;;;;;;;;;;;;8374870;28;27711;-79
2023/01/21 13:49:31;;;;;;;;;;;;;;;;;;8376842;28;27849;-79
2023/01/21 13:53:31;;;;;;;;;;;;;;;;;;8375190;28;27928;-79
2023/01/21 13:57:31;;;;;;;;;;;;;;;;;;8376571;28;28839;-80
2023/01/21 14:01:31;;;;;;;;;;;;;;;;;;8378943;28;27291;-81
2023/01/21 14:05:31;;;;;;;;;;;;;;;;;;8383706;28;28544;-79
2023/01/21 14:09:32;;;;;;;;;;;;;;;;;;8374103;28;27461;-78
2023/01/21 14:13:32;;;;;;;;;;;;;;;;;;8384953;28;28237;-78
2023/01/21 14:17:32;;;;;;;;;;;;;;;;;;8384743;28;27665;-80
2023/01/21 14:21:32;;;;;;;;;;;;;;;;;;8373799;27;27913;-81
2023/01/21 14:25:32;;;;;;;;;;;;;;;;;;8370100;28;27561;-78
2023/01/21 14:29:33;;;;;;;;;;;;;;;;;;8369423;28;27930;-78
2023/01/21 14:33:33;;;;;;;;;;;;;;;;;;8376331;28;28510;-78
2023/01/21 14:37:33;;;;;;;;;;;;;;;;;;8375551;28;28637;-79
2023/01/21 14:41:33;;;;;;;;;;;;;;;;;;8378237;28;28489;-78
2023/01/21 14:45:33;;;;;;;;;;;;;;;;;;8375180;28;27599;-78
2023/01/21 14:49:33;;;;;;;;;;;;;;;;;;8376447;28;29902;-75
2023/01/21 14:53:33;;;;;;;;;;;;;;;;;;8380130;28;28447;-77
2023/01/21 14:57:33;;;;;;;;;;;;;;;;;;8381514;28;29949;-77
2023/01/21 15:01:33;;;;;;;;;;;;;;;;;;8371964;28;27385;-76
2023/01/21 15:05:35;;;;;;;;;;;;;;;;;;8381047;27;27389;-77
2023/01/21 15:09:35;;;;;;;;;;;;;;;;;;8379094;28;27805;-76
2023/01/21 15:13:35;;;;;;;;;;;;;;;;;;8377875;27;27226;-78
2023/01/21 15:17:35;;;;;;;;;;;;;;;;;;8381375;28;28792;-77
2023/01/21 15:21:35;;;;;;;;;;;;;;;;;;8377647;28;28493;-77
2023/01/21 15:25:36;;;;;;;;;;;;;;;;;;8379918;28;27316;-78
2023/01/21 15:29:36;;;;;;;;;;;;;;;;;;8373738;28;28623;-76
2023/01/21 15:33:36;;;;;;;;;;;;;;;;;;8380021;28;28067;-76
2023/01/21 15:37:37;;;;;;;;;;;;;;;;;;8378527;28;28561;-77
2023/01/21 15:41:37;;;;;;;;;;;;;;;;;;8378209;28;27252;-76
2023/01/21 15:45:37;;;;;;;;;;;;;;;;;;8373589;28;29933;-75
2023/01/21 15:49:37;;;;;;;;;;;;;;;;;;8383979;28;28808;-77
2023/01/21 15:53:37;;;;;;;;;;;;;;;;;;8389173;27;28166;-77
2023/01/21 15:57:37;;;;;;;;;;;;;;;;;;8387781;28;27424;-78
2023/01/21 16:01:38;;;;;;;;;;;;;;;;;;8382404;28;27583;-79
2023/01/21 16:05:38;;;;;;;;;;;;;;;;;;8380015;28;28025;-79
2023/01/21 16:09:38;;;;;;;;;;;;;;;;;;8384777;27;27477;-79
2023/01/21 16:13:38;;;;;;;;;;;;;;;;;;8382491;28;27243;-78
2023/01/21 16:17:38;;;;;;;;;;;;;;;;;;8376567;28;30820;-78
2023/01/21 16:21:39;;;;;;;;;;;;;;;;;;8377430;27;28622;-77
2023/01/21 16:25:39;;;;;;;;;;;;;;;;;;8382405;28;27789;-78
2023/01/21 16:29:39;;;;;;;;;;;;;;;;;;8372215;28;29735;-79
2023/01/21 16:33:39;;;;;;;;;;;;;;;;;;8369772;28;28431;-78
2023/01/21 16:37:39;;;;;;;;;;;;;;;;;;8368591;28;28592;-78
2023/01/21 16:41:39;;;;;;;;;;;;;;;;;;8364952;28;28184;-78
2023/01/21 16:45:39;;;;;;;;;;;;;;;;;;8372455;28;28507;-78
2023/01/21 16:49:40;;;;;;;;;;;;;;;;;;8375145;28;28598;-78
2023/01/21 16:53:40;;;;;;;;;;;;;;;;;;8384916;28;28937;-78
2023/01/21 16:57:40;;;;;;;;;;;;;;;;;;8386965;28;28631;-78
2023/01/21 17:01:40;;;;;;;;;;;;;;;;;;8379095;28;28867;-77
2023/01/21 17:05:40;;;;;;;;;;;;;;;;;;8397548;28;28844;-78
2023/01/21 17:09:40;;;;;;;;;;;;;;;;;;8380396;28;28439;-77
2023/01/21 17:13:40;;;;;;;;;;;;;;;;;;8372461;28;28418;-76
2023/01/21 17:17:40;;;;;;;;;;;;;;;;;;8385087;28;29759;-78
2023/01/21 17:21:40;;;;;;;;;;;;;;;;;;8384470;28;27549;-77
2023/01/21 17:25:40;;;;;;;;;;;;;;;;;;8382442;28;27394;-78
2023/01/21 17:29:40;;;;;;;;;;;;;;;;;;8379800;28;27577;-79
2023/01/21 17:33:41;;;;;;;;;;;;;;;;;;8384432;28;28517;-78
2023/01/21 17:37:41;;;;;;;;;;;;;;;;;;8384615;28;28910;-79
2023/01/21 17:41:41;;;;;;;;;;;;;;;;;;8374569;28;28634;-77
2023/01/21 17:45:41;;;;;;;;;;;;;;;;;;8376799;28;29750;-78
2023/01/21 17:49:42;;;;;;;;;;;;;;;;;;8384646;28;27546;-76
2023/01/21 17:53:43;;;;;;;;;;;;;;;;;;8378381;28;28120;-77
2023/01/21 17:57:43;;;;;;;;;;;;;;;;;;8377386;28;28145;-78
2023/01/21 18:01:43;;;;;;;;;;;;;;;;;;8370223;28;28260;-80
2023/01/21 18:05:43;;;;;;;;;;;;;;;;;;8385129;28;27919;-77
2023/01/21 18:09:43;;;;;;;;;;;;;;;;;;8381427;28;27311;-78
2023/01/21 18:13:43;;;;;;;;;;;;;;;;;;8380602;28;28142;-77
2023/01/21 18:17:43;;;;;;;;;;;;;;;;;;8381958;28;30286;-78
2023/01/21 18:21:44;;;;;;;;;;;;;;;;;;8374068;28;28817;-77
2023/01/21 18:25:44;;;;;;;;;;;;;;;;;;8382150;28;28960;-77
2023/01/21 18:29:44;;;;;;;;;;;;;;;;;;8377373;28;27385;-77
2023/01/21 18:33:44;;;;;;;;;;;;;;;;;;8381187;28;27388;-78
2023/01/21 18:37:44;;;;;;;;;;;;;;;;;;8380970;28;27514;-78
2023/01/21 18:41:44;;;;;;;;;;;;;;;;;;8379550;28;28469;-78
2023/01/21 18:45:45;;;;;;;;;;;;;;;;;;8387721;28;29692;-79
2023/01/21 18:49:48;;;;;;;;;;;;;;;;;;8377557;28;27398;-78
2023/01/21 18:53:48;;;;;;;;;;;;;;;;;;8381656;28;28018;-78
2023/01/21 18:57:48;;;;;;;;;;;;;;;;;;8371374;28;28641;-78
2023/01/21 19:01:48;;;;;;;;;;;;;;;;;;8378664;28;27493;-76
2023/01/21 19:05:49;;;;;;;;;;;;;;;;;;8381711;28;28011;-77
2023/01/21 19:09:49;;;;;;;;;;;;;;;;;;8376308;28;27510;-77
2023/01/21 19:13:50;;;;;;;;;;;;;;;;;;8381910;28;28790;-78
2023/01/21 19:17:50;;;;;;;;;;;;;;;;;;8374619;28;28598;-78
2023/01/21 19:21:52;;;;;;;;;;;;;;;;;;8376424;28;27320;-77
2023/01/21 19:25:52;;;;;;;;;;;;;;;;;;8376451;27;28488;-78
2023/01/21 19:29:52;;;;;;;;;;;;;;;;;;8380534;28;27081;-78
2023/01/21 19:33:52;;;;;;;;;;;;;;;;;;8385653;28;28517;-78
2023/01/21 19:37:52;;;;;;;;;;;;;;;;;;8377834;28;28570;-78
2023/01/21 19:41:53;;;;;;;;;;;;;;;;;;8371082;28;27331;-79
2023/01/21 19:45:54;;;;;;;;;;;;;;;;;;8376681;28;27050;-78
2023/01/21 19:49:54;;;;;;;;;;;;;;;;;;8371854;28;27978;-78
2023/01/21 19:53:54;;;;;;;;;;;;;;;;;;8375705;28;28512;-78
2023/01/21 19:57:55;;;;;;;;;;;;;;;;;;8378465;28;28180;-76
2023/01/21 20:01:55;;;;;;;;;;;;;;;;;;8374070;28;29007;-79
2023/01/21 20:05:55;;;;;;;;;;;;;;;;;;8375630;28;30377;-77
2023/01/21 20:09:55;;;;;;;;;;;;;;;;;;8377715;28;28496;-78
2023/01/21 20:13:55;;;;;;;;;;;;;;;;;;8384500;28;28070;-77
2023/01/21 20:17:55;;;;;;;;;;;;;;;;;;8377120;28;27388;-77
2023/01/21 20:21:56;;;;;;;;;;;;;;;;;;8376799;28;27736;-77
2023/01/21 20:25:56;;;;;;;;;;;;;;;;;;8380078;28;29457;-78
2023/01/21 20:29:57;;;;;;;;;;;;;;;;;;8382542;28;28506;-79
2023/01/21 20:33:57;;;;;;;;;;;;;;;;;;8394007;27;27101;-77
2023/01/21 20:37:58;;;;;;;;;;;;;;;;;;8378487;28;28016;-77
2023/01/21 20:41:58;;;;;;;;;;;;;;;;;;8388878;28;28154;-76
2023/01/21 20:45:59;;;;;;;;;;;;;;;;;;8385094;28;28791;-78
2023/01/21 20:50:00;;;;;;;;;;;;;;;;;;8392795;28;29127;-76
2023/01/21 20:54:00;;;;;;;;;;;;;;;;;;8394418;28;27623;-77
2023/01/21 20:58:00;;;;;;;;;;;;;;;;;;8387217;27;28822;-78
2023/01/21 21:02:00;;;;;;;;;;;;;;;;;;8383883;28;29664;-77
2023/01/21 21:06:01;;;;;;;;;;;;;;;;;;8380970;27;27459;-77
2023/01/21 21:10:01;;;;;;;;;;;;;;;;;;8390581;28;27233;-77
2023/01/21 21:14:01;;;;;;;;;;;;;;;;;;8393716;28;27671;-77
2023/01/21 21:18:02;;;;;;;;;;;;;;;;;;8380918;28;27631;-78
2023/01/21 21:22:02;;;;;;;;;;;;;;;;;;8397187;28;28716;-78
2023/01/21 21:26:02;;;;;;;;;;;;;;;;;;8395199;28;28283;-78
2023/01/21 21:30:03;;;;;;;;;;;;;;;;;;8392745;28;27880;-78
2023/01/21 21:34:03;;;;;;;;;;;;;;;;;;8390150;28;28463;-77
2023/01/21 21:38:03;;;;;;;;;;;;;;;;;;8384601;28;27344;-78
2023/01/21 21:50:41;;;;;;;;;;;;;;;;;;8380145;28;27601;-77
2023/01/21 21:54:41;;;;;;;;;;;;;;;;;;8380438;28;27282;-78
2023/01/21 21:58:41;;;;;;;;;;;;;;;;;;8386568;28;27843;-78
2023/01/21 22:02:41;;;;;;;;;;;;;;;;;;8388517;28;28694;-80
2023/01/21 22:06:41;;;;;;;;;;;;;;;;;;8374415;28;29406;-78
2023/01/21 22:10:42;;;;;;;;;;;;;;;;;;8383769;28;28374;-78
2023/01/21 22:14:42;;;;;;;;;;;;;;;;;;8386610;28;29605;-77
2023/01/21 22:18:42;;;;;;;;;;;;;;;;;;8381574;28;27140;-78
2023/01/21 22:22:42;;;;;;;;;;;;;;;;;;8383014;28;27354;-77
2023/01/21 22:26:42;;;;;;;;;;;;;;;;;;8378580;28;29585;-78
2023/01/21 22:30:42;;;;;;;;;;;;;;;;;;8381862;28;28555;-77
2023/01/21 22:34:43;;;;;;;;;;;;;;;;;;8377788;28;27293;-77
2023/01/21 22:38:43;;;;;;;;;;;;;;;;;;8377220;28;27221;-78
2023/01/21 22:42:43;;;;;;;;;;;;;;;;;;8376362;28;27320;-77
2023/01/21 22:46:44;;;;;;;;;;;;;;;;;;8380681;28;28763;-78
2023/01/21 22:50:44;;;;;;;;;;;;;;;;;;8386634;28;29505;-77
2023/01/21 22:54:44;;;;;;;;;;;;;;;;;;8401055;28;29664;-78
2023/01/21 22:58:44;;;;;;;;;;;;;;;;;;8378033;28;27546;-76
2023/01/21 23:02:44;;;;;;;;;;;;;;;;;;8384541;28;29398;-78
2023/01/21 23:06:47;;;;;;;;;;;;;;;;;;8375391;28;28408;-78
2023/01/21 23:10:47;;;;;;;;;;;;;;;;;;8374702;28;27267;-78
2023/01/21 23:14:47;;;;;;;;;;;;;;;;;;8380801;28;27296;-78
2023/01/21 23:18:47;;;;;;;;;;;;;;;;;;8385751;28;27650;-78
2023/01/21 23:22:47;;;;;;;;;;;;;;;;;;8376774;28;28461;-79
2023/01/21 23:26:47;;;;;;;;;;;;;;;;;;8382003;28;29025;-78
2023/01/21 23:30:47;;;;;;;;;;;;;;;;;;8381833;28;28072;-77
2023/01/21 23:34:47;;;;;;;;;;;;;;;;;;8381736;28;28495;-79
2023/01/21 23:38:48;;;;;;;;;;;;;;;;;;8377629;28;27336;-78
2023/01/21 23:42:48;;;;;;;;;;;;;;;;;;8376653;28;27192;-77
2023/01/21 23:46:48;;;;;;;;;;;;;;;;;;8380076;28;28637;-78
2023/01/21 23:50:48;;;;;;;;;;;;;;;;;;8375280;28;28469;-78
2023/01/21 23:54:48;;;;;;;;;;;;;;;;;;8375371;28;27992;-78
2023/01/21 23:58:48;;;;;;;;;;;;;;;;;;8375959;28;28712;-78
